KOWX

Details ICAO KOWX
Name PUTNAM CO
Region United States
Timezone America/New_York (UTC-5.0)
Plans Departing 1
Arriving 0
Stats Elevation 763 ft / 233 m (AMSL)
Location 41.035581° -83.982034°
Runways 1
Magnetic Variation 6.593° W
Sunrise 2017-12-11 12:52:28 UTC / 2017-12-11 07:52:28 Local
Sunset 2017-12-11 22:09:02 UTC / 2017-12-11 17:09:02 Local
Advertisement - Login to hide

Runways

ID Width Length Bearing (true) Bearing (mag) Surface Threshold Offset Overrun Length
09 65 ft / 20 m 4,416 ft / 1,346 m 89.71° 96.30° Asphalt 0 ft / 0 m 0 ft / 0 m
27 65 ft / 20 m 4,416 ft / 1,346 m 269.72° 276.31° Asphalt 0 ft / 0 m 0 ft / 0 m

Map

Weather


0- 5 10 15 20 25 30 35+ Temperature / ° C

Clouds and Precipitation
Forecast for 2017-12-12 06:00 UTC. Updated an hour ago

Ground ~20,000 ft ~40,000 ft Winds

METAR

KOWX 120435Z AUTO 35008KT 10SM BKN110 M01/M03 A2966 RMK AO1

TAF

Not found

Frequencies

Recorded 120.52 MHz AWOS 3
Approach 120.80 MHz TOLEDO APP/DEP
Unicom 122.70 MHz CTAF/UNICOM
Warning: Do not use this data for real-world aviation or navigation. No guarantee of current accuracy is given.